createdAt,value
2023-05-24T00:00:02.513Z,1139.00
2023-05-24T00:01:02.564Z,1145.00
2023-05-24T00:02:02.530Z,1134.00
2023-05-24T00:03:02.517Z,1146.00
2023-05-24T00:04:02.637Z,1138.00
2023-05-24T00:05:02.582Z,1125.00
2023-05-24T00:06:02.626Z,1135.00
2023-05-24T00:07:02.508Z,1134.00
2023-05-24T00:08:02.508Z,1126.00
2023-05-24T00:09:02.452Z,1133.00
2023-05-24T00:10:02.469Z,1133.00
2023-05-24T00:11:02.466Z,1129.00
2023-05-24T00:12:02.482Z,1134.00
2023-05-24T00:13:02.456Z,1131.00
2023-05-24T00:14:02.463Z,1140.00
2023-05-24T00:15:02.498Z,1124.00
2023-05-24T00:16:02.471Z,1128.00
2023-05-24T00:17:02.494Z,1123.00
2023-05-24T00:18:02.500Z,1125.00
2023-05-24T00:19:02.505Z,1118.00
2023-05-24T00:20:02.932Z,1121.00
2023-05-24T00:21:02.453Z,1127.00
2023-05-24T00:22:02.445Z,1127.00
2023-05-24T00:23:02.457Z,1123.00
2023-05-24T00:24:02.467Z,1124.00
2023-05-24T00:25:02.543Z,1121.00
2023-05-24T00:26:02.430Z,1120.00
2023-05-24T00:27:02.412Z,1116.00
2023-05-24T00:28:02.434Z,1118.00
2023-05-24T00:29:02.465Z,1114.00
2023-05-24T00:30:02.418Z,1112.00
2023-05-24T00:31:02.450Z,1113.00
2023-05-24T00:32:02.516Z,1110.00
2023-05-24T00:33:02.461Z,1113.00
2023-05-24T00:34:02.400Z,1105.00
2023-05-24T00:35:02.437Z,1093.00
2023-05-24T00:36:02.412Z,1104.00
2023-05-24T00:37:02.471Z,1104.00
2023-05-24T00:38:02.455Z,1090.00
2023-05-24T00:39:02.419Z,1093.00
2023-05-24T00:40:02.420Z,1079.00
2023-05-24T00:41:02.411Z,1093.00
2023-05-24T00:42:02.451Z,1099.00
2023-05-24T00:43:02.431Z,1086.00
2023-05-24T00:44:02.392Z,1095.00
2023-05-24T00:45:02.407Z,1097.00
2023-05-24T00:46:02.446Z,1093.00
2023-05-24T00:47:02.397Z,1075.00
2023-05-24T00:48:02.430Z,1086.00
2023-05-24T00:49:02.459Z,1084.00
2023-05-24T00:50:02.397Z,1081.00
2023-05-24T00:51:02.390Z,1090.00
2023-05-24T00:52:02.389Z,1084.00
2023-05-24T00:53:02.389Z,1090.00
2023-05-24T00:54:02.368Z,1093.00
2023-05-24T00:55:02.411Z,1086.00
2023-05-24T00:56:02.377Z,1083.00
2023-05-24T00:57:02.395Z,1093.00
2023-05-24T00:58:02.386Z,1067.00
2023-05-24T00:59:02.392Z,1061.00
2023-05-24T01:00:02.370Z,1084.00
2023-05-24T01:01:02.372Z,1076.00
2023-05-24T01:02:02.448Z,1076.00
2023-05-24T01:03:02.479Z,1063.00
2023-05-24T01:04:02.387Z,1082.00
2023-05-24T01:05:02.359Z,1069.00
2023-05-24T01:06:02.375Z,1074.00
2023-05-24T01:07:02.397Z,1070.00
2023-05-24T01:08:02.371Z,1063.00
2023-05-24T01:09:02.371Z,1074.00
2023-05-24T01:10:02.429Z,1067.00
2023-05-24T01:11:02.360Z,1069.00
2023-05-24T01:12:02.378Z,1068.00
2023-05-24T01:13:02.396Z,1071.00
2023-05-24T01:14:02.360Z,1055.00
2023-05-24T01:15:02.343Z,1061.00
2023-05-24T01:16:02.371Z,1051.00
2023-05-24T01:17:02.341Z,1068.00
2023-05-24T01:18:02.359Z,1052.00
2023-05-24T01:19:02.338Z,1059.00
2023-05-24T01:20:02.494Z,1059.00
2023-05-24T01:21:02.329Z,1056.00
2023-05-24T01:22:02.338Z,1056.00
2023-05-24T01:23:02.335Z,1060.00
2023-05-24T01:24:02.351Z,1064.00
2023-05-24T01:25:02.370Z,1047.00
2023-05-24T01:26:02.369Z,1053.00
2023-05-24T01:27:03.039Z,1059.00
2023-05-24T01:28:02.338Z,1048.00
2023-05-24T01:29:02.321Z,1063.00
2023-05-24T01:30:02.350Z,1047.00
2023-05-24T01:31:02.387Z,1047.00
2023-05-24T01:32:02.418Z,1047.00
2023-05-24T01:33:02.358Z,1052.00
2023-05-24T01:34:02.360Z,1040.00
2023-05-24T01:35:02.370Z,1042.00
2023-05-24T01:36:02.330Z,1034.00
2023-05-24T01:37:02.355Z,1047.00
2023-05-24T01:38:02.319Z,1042.00
2023-05-24T01:39:02.354Z,1060.00
2023-05-24T01:40:02.374Z,1047.00
2023-05-24T01:41:02.361Z,1054.00
2023-05-24T01:42:02.329Z,1042.00
2023-05-24T01:43:02.378Z,1039.00
2023-05-24T01:44:02.323Z,1043.00
2023-05-24T01:45:02.327Z,1041.00
2023-05-24T01:46:02.332Z,1041.00
2023-05-24T01:47:02.399Z,1038.00
2023-05-24T01:48:02.423Z,1030.00
2023-05-24T01:49:02.361Z,1048.00
2023-05-24T01:50:02.328Z,1034.00
2023-05-24T01:51:02.325Z,1032.00
2023-05-24T01:52:02.431Z,1038.00
2023-05-24T01:53:02.340Z,1037.00
2023-05-24T01:54:02.357Z,1031.00
2023-05-24T01:55:02.349Z,1028.00
2023-05-24T01:56:02.374Z,1023.00
2023-05-24T01:57:02.300Z,1023.00
2023-05-24T01:58:02.317Z,1032.00
2023-05-24T01:59:02.316Z,1028.00
2023-05-24T02:00:02.325Z,1027.00
2023-05-24T02:01:02.361Z,1023.00
2023-05-24T02:02:02.444Z,1024.00
2023-05-24T02:03:02.486Z,1024.00
2023-05-24T02:04:02.309Z,1022.00
2023-05-24T02:05:02.331Z,1015.00
2023-05-24T02:06:02.332Z,1019.00
2023-05-24T02:07:02.356Z,1019.00
2023-05-24T02:08:02.274Z,1003.00
2023-05-24T02:09:02.336Z,1001.00
2023-05-24T02:10:02.300Z,1002.00
2023-05-24T02:11:02.304Z,1005.00
2023-05-24T02:12:02.308Z,1008.00
2023-05-24T02:13:02.328Z,1011.00
2023-05-24T02:14:02.293Z,1004.00
2023-05-24T02:15:02.307Z,1010.00
2023-05-24T02:16:02.288Z,1011.00
2023-05-24T02:17:02.307Z,1010.00
2023-05-24T02:18:02.417Z,1018.00
2023-05-24T02:19:02.259Z,997.00
2023-05-24T02:20:02.311Z,995.00
2023-05-24T02:21:02.290Z,1003.00
2023-05-24T02:22:02.297Z,1006.00
2023-05-24T02:23:02.270Z,998.00
2023-05-24T02:24:02.273Z,990.00
2023-05-24T02:25:02.256Z,1001.00
2023-05-24T02:26:02.296Z,999.00
2023-05-24T02:27:02.299Z,996.00
2023-05-24T02:28:02.336Z,998.00
2023-05-24T02:29:02.316Z,1000.00
2023-05-24T02:30:02.380Z,999.00
2023-05-24T02:31:02.375Z,999.00
2023-05-24T02:32:03.027Z,993.00
2023-05-24T02:33:02.438Z,984.00
2023-05-24T02:34:02.321Z,987.00
2023-05-24T02:35:02.341Z,989.00
2023-05-24T02:36:02.347Z,999.00
2023-05-24T02:37:02.303Z,1006.00
2023-05-24T02:38:02.279Z,984.00
2023-05-24T02:39:02.353Z,992.00
2023-05-24T02:40:02.339Z,992.00
2023-05-24T02:41:02.339Z,991.00
2023-05-24T02:42:02.342Z,997.00
2023-05-24T02:43:02.346Z,984.00
2023-05-24T02:44:02.358Z,995.00
2023-05-24T02:45:02.356Z,981.00
2023-05-24T02:46:02.400Z,1001.00
2023-05-24T02:47:02.355Z,986.00
2023-05-24T02:48:02.360Z,992.00
2023-05-24T02:49:02.356Z,999.00
2023-05-24T02:50:02.400Z,999.00
2023-05-24T02:51:02.391Z,977.00
2023-05-24T02:52:02.381Z,989.00
2023-05-24T02:53:02.338Z,992.00
2023-05-24T02:54:02.394Z,986.00
2023-05-24T02:55:02.314Z,978.00
2023-05-24T02:56:02.361Z,971.00
2023-05-24T02:57:02.321Z,969.00
2023-05-24T02:58:02.372Z,975.00
2023-05-24T02:59:02.378Z,973.00
2023-05-24T03:00:02.411Z,975.00
2023-05-24T03:01:02.412Z,977.00
2023-05-24T03:02:02.460Z,972.00
2023-05-24T03:03:02.442Z,972.00
2023-05-24T03:04:02.466Z,961.00
2023-05-24T03:05:02.394Z,971.00
2023-05-24T03:06:02.467Z,976.00
2023-05-24T03:07:02.396Z,980.00
2023-05-24T03:08:02.408Z,966.00
2023-05-24T03:09:02.408Z,977.00
2023-05-24T03:10:02.414Z,973.00
2023-05-24T03:11:02.471Z,975.00
2023-05-24T03:12:02.470Z,977.00
2023-05-24T03:13:02.423Z,970.00
2023-05-24T03:14:02.424Z,965.00
2023-05-24T03:15:02.449Z,975.00
2023-05-24T03:16:02.501Z,983.00
2023-05-24T03:17:02.472Z,966.00
2023-05-24T03:18:02.518Z,959.00
2023-05-24T03:19:02.466Z,979.00
2023-05-24T03:20:02.566Z,965.00
2023-05-24T03:21:02.502Z,970.00
2023-05-24T03:22:02.511Z,972.00
2023-05-24T03:23:02.472Z,957.00
2023-05-24T03:24:02.473Z,968.00
2023-05-24T03:25:02.485Z,962.00
2023-05-24T03:26:02.505Z,960.00
2023-05-24T03:27:02.513Z,966.00
2023-05-24T03:28:02.523Z,969.00
2023-05-24T03:29:02.509Z,961.00
2023-05-24T03:30:02.593Z,961.00
2023-05-24T03:31:02.538Z,950.00
2023-05-24T03:32:02.720Z,953.00
2023-05-24T03:33:02.630Z,953.00
2023-05-24T03:34:02.600Z,952.00
2023-05-24T03:35:02.585Z,958.00
2023-05-24T03:36:02.634Z,953.00
2023-05-24T03:37:02.570Z,953.00
2023-05-24T03:38:02.616Z,946.00
2023-05-24T03:39:02.604Z,951.00
2023-05-24T03:40:02.656Z,952.00
2023-05-24T03:41:02.610Z,948.00
2023-05-24T03:42:02.723Z,956.00
2023-05-24T03:43:04.383Z,953.00
2023-05-24T03:44:02.644Z,961.00
2023-05-24T03:45:02.620Z,945.00
2023-05-24T03:46:02.686Z,944.00
2023-05-24T03:47:02.631Z,939.00
2023-05-24T03:48:02.671Z,949.00
2023-05-24T03:49:02.656Z,946.00
2023-05-24T03:50:02.707Z,942.00
2023-05-24T03:51:02.688Z,945.00
2023-05-24T03:52:02.677Z,948.00
2023-05-24T03:53:02.699Z,941.00
2023-05-24T03:54:02.680Z,934.00
2023-05-24T03:55:02.648Z,948.00
2023-05-24T03:56:03.482Z,940.00
2023-05-24T03:57:02.698Z,946.00
2023-05-24T03:58:03.562Z,940.00
2023-05-24T03:59:02.727Z,947.00
2023-05-24T04:00:02.718Z,940.00
2023-05-24T04:01:02.733Z,939.00
2023-05-24T04:02:02.742Z,942.00
2023-05-24T04:03:02.742Z,941.00
2023-05-24T04:04:02.777Z,945.00
2023-05-24T04:05:02.709Z,929.00
2023-05-24T04:06:02.723Z,918.00
2023-05-24T04:07:02.771Z,909.00
2023-05-24T04:08:02.733Z,887.00
2023-05-24T04:09:02.748Z,875.00
2023-05-24T04:10:02.804Z,840.00
2023-05-24T04:11:02.732Z,805.00
2023-05-24T04:12:02.763Z,806.00
2023-05-24T04:13:02.802Z,795.00
2023-05-24T04:14:02.808Z,757.00
2023-05-24T04:15:03.100Z,749.00
2023-05-24T04:16:02.819Z,725.00
2023-05-24T04:17:02.919Z,703.00
2023-05-24T04:18:02.939Z,684.00
2023-05-24T04:19:02.871Z,672.00
2023-05-24T04:20:02.857Z,656.00
2023-05-24T04:21:02.858Z,652.00
2023-05-24T04:22:02.889Z,643.00
2023-05-24T04:23:02.879Z,636.00
2023-05-24T04:24:02.888Z,631.00
2023-05-24T04:25:02.967Z,632.00
2023-05-24T04:26:02.915Z,623.00
2023-05-24T04:27:02.936Z,613.00
2023-05-24T04:28:02.969Z,617.00
2023-05-24T04:29:02.988Z,605.00
2023-05-24T04:30:02.950Z,601.00
2023-05-24T04:31:03.018Z,593.00
2023-05-24T04:32:03.000Z,590.00
2023-05-24T04:33:03.068Z,602.00
2023-05-24T04:34:02.994Z,591.00
2023-05-24T04:35:03.019Z,595.00
2023-05-24T04:36:03.059Z,592.00
2023-05-24T04:37:03.039Z,592.00
2023-05-24T04:38:03.039Z,599.00
2023-05-24T04:39:03.180Z,594.00
2023-05-24T04:40:03.109Z,593.00
2023-05-24T04:41:03.063Z,593.00
2023-05-24T04:42:03.111Z,599.00
2023-05-24T04:43:03.080Z,599.00
2023-05-24T04:44:03.127Z,591.00
2023-05-24T04:45:03.135Z,591.00
2023-05-24T04:46:03.150Z,598.00
2023-05-24T04:47:03.145Z,598.00
2023-05-24T04:48:03.171Z,591.00
2023-05-24T04:49:03.126Z,599.00
2023-05-24T04:50:03.188Z,596.00
2023-05-24T04:51:03.164Z,592.00
2023-05-24T04:52:03.244Z,593.00
2023-05-24T04:53:03.197Z,603.00
2023-05-24T04:54:03.186Z,608.00
2023-05-24T04:55:03.215Z,615.00
2023-05-24T04:56:03.312Z,618.00
2023-05-24T04:57:03.247Z,615.00
2023-05-24T04:58:03.233Z,626.00
2023-05-24T04:59:03.310Z,619.00
2023-05-24T05:00:03.257Z,624.00
2023-05-24T05:01:03.370Z,624.00
2023-05-24T05:02:03.326Z,621.00
2023-05-24T05:03:03.307Z,623.00
2023-05-24T05:04:03.445Z,626.00
2023-05-24T05:05:03.266Z,624.00
2023-05-24T05:06:03.331Z,634.00
2023-05-24T05:07:03.280Z,634.00
2023-05-24T05:08:03.301Z,635.00
2023-05-24T05:09:03.292Z,627.00
2023-05-24T05:10:03.308Z,631.00
2023-05-24T05:11:03.314Z,638.00
2023-05-24T05:12:03.998Z,633.00
2023-05-24T05:13:03.319Z,632.00
2023-05-24T05:14:03.326Z,636.00
2023-05-24T05:15:03.303Z,625.00
2023-05-24T05:16:03.375Z,635.00
2023-05-24T05:17:03.305Z,635.00
2023-05-24T05:18:03.429Z,631.00
2023-05-24T05:19:03.285Z,634.00
2023-05-24T05:20:03.341Z,631.00
2023-05-24T05:21:03.329Z,638.00
2023-05-24T05:22:03.362Z,635.00
2023-05-24T05:23:03.286Z,632.00
2023-05-24T05:24:03.284Z,634.00
2023-05-24T05:25:03.347Z,633.00
2023-05-24T05:26:03.368Z,635.00
2023-05-24T05:27:03.310Z,638.00
2023-05-24T05:28:03.387Z,633.00
2023-05-24T05:29:03.321Z,631.00
2023-05-24T05:30:03.337Z,631.00
2023-05-24T05:31:03.306Z,634.00
2023-05-24T05:32:03.348Z,633.00
2023-05-24T05:33:03.393Z,633.00
2023-05-24T05:34:03.292Z,632.00
2023-05-24T05:35:03.274Z,631.00
2023-05-24T05:36:03.337Z,648.00
2023-05-24T05:37:03.293Z,664.00
2023-05-24T05:38:03.296Z,680.00
2023-05-24T05:39:03.348Z,691.00
2023-05-24T05:40:03.300Z,648.00
2023-05-24T05:41:03.294Z,624.00
2023-05-24T05:42:03.309Z,605.00
2023-05-24T05:43:03.316Z,586.00
2023-05-24T05:44:03.325Z,560.00
2023-05-24T05:45:03.408Z,549.00
2023-05-24T05:46:03.676Z,543.00
2023-05-24T05:47:03.523Z,560.00
2023-05-24T05:48:03.475Z,550.00
2023-05-24T05:49:04.138Z,533.00
2023-05-24T05:50:03.580Z,524.00
2023-05-24T05:51:03.641Z,530.00
2023-05-24T05:52:03.692Z,535.00
2023-05-24T05:53:04.103Z,566.00
2023-05-24T05:54:03.758Z,569.00
2023-05-24T05:55:03.860Z,565.00
2023-05-24T05:56:03.878Z,574.00
2023-05-24T05:57:03.936Z,569.00
2023-05-24T05:58:04.039Z,567.00
2023-05-24T05:59:04.044Z,529.00
2023-05-24T06:00:04.114Z,500.00
2023-05-24T06:01:04.171Z,500.00
2023-05-24T06:02:04.469Z,500.00
2023-05-24T06:03:04.378Z,509.00
2023-05-24T06:04:04.422Z,503.00
2023-05-24T06:05:04.317Z,500.00
2023-05-24T06:06:04.306Z,515.00
2023-05-24T06:07:04.320Z,516.00
2023-05-24T06:08:04.356Z,500.00
2023-05-24T06:09:04.292Z,500.00
2023-05-24T06:10:04.343Z,513.00
2023-05-24T06:11:04.333Z,509.00
2023-05-24T06:12:04.287Z,520.00
2023-05-24T06:13:04.316Z,511.00
2023-05-24T06:14:04.310Z,528.00
2023-05-24T06:15:04.624Z,534.00
2023-05-24T06:16:04.426Z,530.00
2023-05-24T06:17:04.320Z,517.00
2023-05-24T06:18:04.371Z,500.00
2023-05-24T06:19:06.464Z,509.00
2023-05-24T06:20:04.369Z,518.00
2023-05-24T06:21:04.426Z,508.00
2023-05-24T06:22:04.359Z,500.00
2023-05-24T06:23:04.366Z,512.00
2023-05-24T06:24:04.421Z,511.00
2023-05-24T06:25:04.447Z,508.00
2023-05-24T06:26:04.484Z,533.00
2023-05-24T06:27:05.432Z,568.00
2023-05-24T06:28:04.527Z,591.00
2023-05-24T06:29:04.878Z,606.00
2023-05-24T06:30:04.572Z,642.00
2023-05-24T06:31:04.616Z,639.00
2023-05-24T06:32:04.557Z,652.00
2023-05-24T06:33:04.631Z,726.00
2023-05-24T06:34:04.980Z,692.00
2023-05-24T06:35:04.674Z,678.00
2023-05-24T06:36:05.612Z,724.00
2023-05-24T06:37:04.866Z,726.00
2023-05-24T06:38:04.855Z,732.00
2023-05-24T06:39:04.900Z,729.00
2023-05-24T06:40:05.011Z,751.00
2023-05-24T06:41:04.999Z,756.00
2023-05-24T06:42:05.060Z,764.00
2023-05-24T06:43:05.171Z,772.00
2023-05-24T06:44:05.190Z,754.00
2023-05-24T06:45:05.282Z,755.00
2023-05-24T06:46:05.290Z,792.00
2023-05-24T06:47:05.417Z,780.00
2023-05-24T06:48:05.457Z,809.00
2023-05-24T06:49:05.583Z,803.00
2023-05-24T06:50:05.505Z,806.00
2023-05-24T06:51:05.509Z,819.00
2023-05-24T06:52:05.653Z,841.00
2023-05-24T06:53:06.540Z,842.00
2023-05-24T06:54:05.483Z,845.00
2023-05-24T06:55:05.709Z,851.00
2023-05-24T06:56:05.494Z,864.00
2023-05-24T06:57:05.481Z,849.00
2023-05-24T06:58:05.500Z,843.00
2023-05-24T06:59:05.561Z,879.00
2023-05-24T07:00:06.123Z,880.00
2023-05-24T07:01:05.591Z,896.00
2023-05-24T07:02:05.470Z,887.00
2023-05-24T07:03:05.478Z,900.00
2023-05-24T07:04:05.448Z,914.00
2023-05-24T07:05:05.488Z,930.00
2023-05-24T07:06:05.425Z,922.00
2023-05-24T07:07:05.625Z,926.00
2023-05-24T07:08:05.446Z,918.00
2023-05-24T07:09:05.426Z,928.00
2023-05-24T07:10:05.582Z,931.00
2023-05-24T07:11:05.590Z,938.00
2023-05-24T07:12:07.676Z,940.00
2023-05-24T07:13:05.493Z,953.00
2023-05-24T07:14:05.461Z,958.00
2023-05-24T07:15:05.484Z,961.00
2023-05-24T07:16:05.522Z,936.00
2023-05-24T07:17:05.593Z,939.00
2023-05-24T07:18:05.534Z,941.00
2023-05-24T07:19:05.427Z,947.00
2023-05-24T07:20:05.468Z,939.00
2023-05-24T07:21:05.690Z,895.00
2023-05-24T07:22:05.456Z,918.00
2023-05-24T07:23:05.392Z,944.00
2023-05-24T07:24:05.392Z,948.00
2023-05-24T07:25:05.394Z,922.00
2023-05-24T07:26:05.404Z,949.00
2023-05-24T07:27:05.665Z,890.00
2023-05-24T07:28:05.349Z,939.00
2023-05-24T07:29:05.361Z,948.00
2023-05-24T07:30:07.799Z,941.00
2023-05-24T07:31:06.361Z,943.00
2023-05-24T07:32:05.335Z,946.00
2023-05-24T07:33:05.347Z,952.00
2023-05-24T07:34:05.355Z,960.00
2023-05-24T07:35:05.320Z,960.00
2023-05-24T07:36:05.338Z,958.00
2023-05-24T07:37:05.299Z,959.00
2023-05-24T07:38:05.361Z,937.00
2023-05-24T07:39:05.252Z,950.00
2023-05-24T07:40:05.314Z,937.00
2023-05-24T07:41:05.337Z,908.00
2023-05-24T07:42:05.409Z,921.00
2023-05-24T07:43:05.453Z,922.00
2023-05-24T07:44:05.469Z,843.00
2023-05-24T07:45:05.545Z,835.00
2023-05-24T07:46:05.612Z,778.00
2023-05-24T07:47:05.507Z,719.00
2023-05-24T07:48:05.572Z,690.00
2023-05-24T07:49:05.537Z,654.00
2023-05-24T07:50:05.696Z,681.00
2023-05-24T07:51:05.494Z,705.00
2023-05-24T07:52:06.169Z,678.00
2023-05-24T07:53:05.667Z,623.00
2023-05-24T07:54:05.544Z,558.00
2023-05-24T07:55:05.597Z,523.00
2023-05-24T07:56:05.598Z,524.00
2023-05-24T07:57:07.293Z,550.00
2023-05-24T07:58:05.595Z,558.00
2023-05-24T07:59:05.596Z,574.00
2023-05-24T08:00:05.552Z,588.00
2023-05-24T08:01:05.583Z,601.00
2023-05-24T08:02:05.605Z,587.00
2023-05-24T08:03:05.628Z,585.00
2023-05-24T08:04:05.643Z,590.00
2023-05-24T08:05:05.587Z,570.00
2023-05-24T08:06:05.531Z,589.00
2023-05-24T08:07:05.959Z,586.00
2023-05-24T08:08:05.522Z,590.00
2023-05-24T08:09:05.479Z,575.00
2023-05-24T08:10:05.461Z,576.00
2023-05-24T08:11:05.508Z,574.00
2023-05-24T08:12:05.544Z,590.00
2023-05-24T08:13:05.471Z,584.00
2023-05-24T08:14:05.540Z,585.00
2023-05-24T08:15:05.472Z,592.00
2023-05-24T08:16:05.446Z,583.00
2023-05-24T08:17:05.440Z,565.00
2023-05-24T08:18:05.498Z,575.00
2023-05-24T08:19:05.429Z,591.00
2023-05-24T08:20:05.482Z,578.00
2023-05-24T08:21:05.402Z,577.00
2023-05-24T08:22:05.411Z,580.00
2023-05-24T08:23:05.378Z,573.00
2023-05-24T08:24:07.615Z,578.00
2023-05-24T08:25:05.347Z,572.00
2023-05-24T08:26:05.341Z,580.00
2023-05-24T08:27:05.340Z,579.00
2023-05-24T08:28:05.464Z,574.00
2023-05-24T08:29:05.351Z,566.00
2023-05-24T08:30:05.432Z,564.00
2023-05-24T08:31:05.325Z,569.00
2023-05-24T08:32:05.493Z,573.00
2023-05-24T08:33:05.468Z,567.00
2023-05-24T08:34:05.300Z,556.00
2023-05-24T08:35:18.336Z,568.00
2023-05-24T08:36:06.277Z,569.00
2023-05-24T08:37:05.304Z,572.00
2023-05-24T08:38:05.277Z,576.00
2023-05-24T08:39:05.282Z,593.00
2023-05-24T08:40:05.299Z,616.00
2023-05-24T08:41:05.253Z,636.00
2023-05-24T08:42:09.681Z,653.00
2023-05-24T08:43:06.229Z,653.00
2023-05-24T08:44:05.241Z,652.00
2023-05-24T08:45:05.214Z,656.00
2023-05-24T08:46:05.263Z,659.00
2023-05-24T08:47:05.201Z,685.00
2023-05-24T08:48:05.254Z,695.00
2023-05-24T08:49:05.266Z,695.00
2023-05-24T08:50:05.198Z,705.00
2023-05-24T08:51:05.186Z,708.00
2023-05-24T08:52:05.292Z,744.00
2023-05-24T08:53:05.709Z,731.00
2023-05-24T08:54:05.408Z,715.00
2023-05-24T08:55:05.630Z,692.00
2023-05-24T08:56:05.501Z,694.00
2023-05-24T08:57:05.564Z,700.00
2023-05-24T08:58:05.619Z,715.00
2023-05-24T08:59:05.689Z,746.00
2023-05-24T09:00:05.752Z,735.00
2023-05-24T09:01:05.833Z,723.00
2023-05-24T09:02:06.218Z,751.00
2023-05-24T09:03:06.083Z,764.00
2023-05-24T09:04:06.018Z,759.00
2023-05-24T09:05:06.053Z,757.00
2023-05-24T09:06:06.123Z,755.00
2023-05-24T09:07:06.152Z,749.00
2023-05-24T09:08:06.332Z,768.00
2023-05-24T09:09:06.287Z,778.00
2023-05-24T09:10:06.349Z,758.00
2023-05-24T09:11:06.397Z,765.00
2023-05-24T09:12:06.459Z,789.00
2023-05-24T09:13:06.467Z,794.00
2023-05-24T09:14:06.547Z,814.00
2023-05-24T09:15:06.650Z,820.00
2023-05-24T09:16:06.753Z,822.00
2023-05-24T09:17:06.712Z,813.00
2023-05-24T09:18:06.898Z,815.00
2023-05-24T09:19:06.802Z,823.00
2023-05-24T09:20:07.085Z,831.00
2023-05-24T09:21:06.855Z,847.00
2023-05-24T09:22:06.946Z,838.00
2023-05-24T09:23:06.985Z,842.00
2023-05-24T09:24:07.024Z,829.00
2023-05-24T09:25:07.049Z,829.00
2023-05-24T09:26:07.104Z,835.00
2023-05-24T09:27:07.202Z,856.00
2023-05-24T09:28:07.264Z,850.00
2023-05-24T09:29:07.432Z,859.00
2023-05-24T09:30:07.292Z,853.00
2023-05-24T09:31:08.289Z,861.00
2023-05-24T09:32:07.447Z,860.00
2023-05-24T09:33:07.456Z,863.00
2023-05-24T09:34:07.464Z,871.00
2023-05-24T09:35:07.535Z,886.00
2023-05-24T09:36:07.536Z,876.00
2023-05-24T09:37:07.639Z,888.00
2023-05-24T09:38:07.630Z,909.00
2023-05-24T09:39:07.721Z,900.00
2023-05-24T09:40:07.696Z,912.00
2023-05-24T09:41:07.710Z,903.00
2023-05-24T09:42:07.775Z,904.00
2023-05-24T09:43:07.825Z,912.00
2023-05-24T09:44:07.896Z,899.00
2023-05-24T09:45:07.908Z,919.00
2023-05-24T09:46:07.910Z,913.00
2023-05-24T09:47:08.022Z,909.00
2023-05-24T09:48:07.950Z,907.00
2023-05-24T09:49:08.075Z,906.00
2023-05-24T09:50:08.060Z,914.00
2023-05-24T09:51:08.116Z,923.00
2023-05-24T09:52:08.288Z,911.00
2023-05-24T09:53:08.100Z,926.00
2023-05-24T09:54:08.122Z,929.00
2023-05-24T09:55:08.149Z,928.00
2023-05-24T09:56:08.175Z,939.00
2023-05-24T09:57:08.231Z,936.00
2023-05-24T09:58:08.278Z,943.00
2023-05-24T09:59:08.239Z,927.00
2023-05-24T10:00:08.320Z,943.00
2023-05-24T10:01:08.653Z,936.00
2023-05-24T10:02:08.357Z,939.00
2023-05-24T10:03:08.457Z,944.00
2023-05-24T10:04:10.253Z,948.00
2023-05-24T10:05:08.417Z,930.00
2023-05-24T10:06:08.467Z,932.00
2023-05-24T10:07:08.491Z,940.00
2023-05-24T10:08:09.116Z,941.00
2023-05-24T10:09:08.602Z,953.00
2023-05-24T10:10:08.586Z,942.00
2023-05-24T10:11:08.591Z,949.00
2023-05-24T10:12:08.653Z,939.00
2023-05-24T10:13:08.666Z,944.00
2023-05-24T10:14:08.652Z,952.00
2023-05-24T10:15:08.667Z,950.00
2023-05-24T10:16:08.755Z,932.00
2023-05-24T10:17:08.773Z,936.00
2023-05-24T10:18:11.467Z,937.00
2023-05-24T10:19:09.754Z,938.00
2023-05-24T10:20:09.235Z,941.00
2023-05-24T10:21:08.778Z,939.00
2023-05-24T10:22:08.730Z,937.00
2023-05-24T10:23:08.713Z,952.00
2023-05-24T10:24:09.191Z,940.00
2023-05-24T10:25:08.711Z,940.00
2023-05-24T10:26:08.700Z,954.00
2023-05-24T10:27:08.639Z,956.00
2023-05-24T10:28:08.710Z,935.00
2023-05-24T10:29:08.642Z,954.00
2023-05-24T10:30:10.714Z,948.00
2023-05-24T10:31:08.717Z,959.00
2023-05-24T10:32:08.637Z,965.00
2023-05-24T10:33:08.721Z,952.00
2023-05-24T10:34:09.012Z,962.00
2023-05-24T10:35:08.751Z,950.00
2023-05-24T10:36:09.821Z,952.00
2023-05-24T10:37:08.618Z,953.00
2023-05-24T10:38:08.647Z,957.00
2023-05-24T10:39:08.592Z,953.00
2023-05-24T10:40:08.572Z,957.00
2023-05-24T10:41:08.589Z,958.00
2023-05-24T10:42:09.966Z,959.00
2023-05-24T10:43:08.637Z,952.00
2023-05-24T10:44:10.041Z,957.00
2023-05-24T10:45:08.559Z,940.00
2023-05-24T10:46:08.594Z,948.00
2023-05-24T10:47:08.547Z,950.00
2023-05-24T10:48:08.608Z,954.00
2023-05-24T10:49:08.502Z,935.00
2023-05-24T10:50:08.547Z,955.00
2023-05-24T10:51:08.486Z,946.00
2023-05-24T10:52:08.495Z,962.00
2023-05-24T10:53:08.515Z,939.00
2023-05-24T10:54:09.174Z,947.00
2023-05-24T10:55:08.645Z,958.00
2023-05-24T10:56:08.452Z,948.00
2023-05-24T10:57:08.506Z,971.00
2023-05-24T10:58:08.421Z,946.00
2023-05-24T10:59:08.454Z,949.00
2023-05-24T11:00:09.150Z,944.00
2023-05-24T11:01:08.454Z,956.00
2023-05-24T11:02:08.514Z,943.00
2023-05-24T11:03:08.515Z,953.00
2023-05-24T11:04:08.417Z,957.00
2023-05-24T11:05:08.492Z,952.00
2023-05-24T11:06:08.509Z,947.00
2023-05-24T11:07:08.484Z,944.00
2023-05-24T11:08:08.516Z,945.00
2023-05-24T11:09:08.743Z,948.00
2023-05-24T11:10:08.590Z,949.00
2023-05-24T11:11:23.469Z,948.00
2023-05-24T11:12:09.592Z,949.00
2023-05-24T11:13:08.581Z,950.00
2023-05-24T11:14:08.741Z,952.00
2023-05-24T11:15:08.762Z,953.00
2023-05-24T11:16:08.581Z,944.00
2023-05-24T11:17:08.565Z,953.00
2023-05-24T11:18:08.634Z,954.00
2023-05-24T11:19:08.728Z,959.00
2023-05-24T11:20:08.757Z,941.00
2023-05-24T11:21:08.564Z,955.00
2023-05-24T11:22:08.543Z,954.00
2023-05-24T11:23:08.501Z,953.00
2023-05-24T11:24:08.497Z,940.00
2023-05-24T11:25:08.595Z,953.00
2023-05-24T11:26:08.677Z,948.00
2023-05-24T11:27:08.675Z,948.00
2023-05-24T11:28:08.706Z,941.00
2023-05-24T11:29:08.699Z,941.00
2023-05-24T11:30:08.719Z,950.00
2023-05-24T11:31:08.876Z,950.00
2023-05-24T11:32:08.870Z,942.00
2023-05-24T11:33:08.900Z,952.00
2023-05-24T11:34:08.934Z,948.00
2023-05-24T11:35:08.924Z,941.00
2023-05-24T11:36:09.007Z,935.00
2023-05-24T11:37:09.067Z,938.00
2023-05-24T11:38:09.059Z,942.00
2023-05-24T11:39:09.137Z,935.00
2023-05-24T11:40:09.170Z,929.00
2023-05-24T11:41:09.203Z,948.00
2023-05-24T11:42:09.279Z,936.00
2023-05-24T11:43:09.287Z,946.00
2023-05-24T11:44:09.336Z,952.00
2023-05-24T11:45:09.466Z,940.00
2023-05-24T11:46:09.454Z,935.00
2023-05-24T11:47:09.453Z,930.00
2023-05-24T11:48:09.657Z,938.00
2023-05-24T11:49:09.579Z,943.00
2023-05-24T11:50:09.655Z,940.00
2023-05-24T11:51:09.629Z,944.00
2023-05-24T11:52:09.672Z,937.00
2023-05-24T11:53:09.723Z,928.00
2023-05-24T11:54:09.760Z,941.00
2023-05-24T11:55:09.824Z,947.00
2023-05-24T11:56:09.828Z,927.00
2023-05-24T11:57:09.864Z,941.00
2023-05-24T11:58:09.941Z,945.00
2023-05-24T11:59:10.266Z,945.00
2023-05-24T12:00:10.122Z,941.00
2023-05-24T12:01:10.058Z,935.00
2023-05-24T12:02:10.119Z,941.00
2023-05-24T12:03:10.414Z,948.00
2023-05-24T12:04:10.356Z,945.00
2023-05-24T12:05:10.266Z,940.00
2023-05-24T12:06:10.304Z,935.00
2023-05-24T12:07:10.309Z,942.00
2023-05-24T12:08:12.441Z,933.00
2023-05-24T12:09:10.444Z,935.00
2023-05-24T12:10:10.500Z,940.00
2023-05-24T12:11:10.584Z,940.00
2023-05-24T12:12:10.554Z,948.00
2023-05-24T12:13:10.638Z,942.00
2023-05-24T12:14:10.658Z,933.00
2023-05-24T12:15:10.755Z,946.00
2023-05-24T12:16:10.781Z,939.00
2023-05-24T12:17:10.742Z,947.00
2023-05-24T12:18:10.854Z,949.00
2023-05-24T12:19:20.094Z,931.00
2023-05-24T12:20:11.880Z,932.00
2023-05-24T12:21:10.843Z,934.00
2023-05-24T12:22:10.845Z,938.00
2023-05-24T12:23:10.848Z,943.00